LIBP Airport Information

Runway Information
Runway 04 Length 7933 ft width 148 ft
Elevation 46 ft Threshold 344 ft Heading 38
Runway 22 Length 7933 ft Width 148 ft
Elevation 27 ft Threshold 617 ft Heading 218
Airport Frequencies
Type APP Name APP Frequency 120.05 MHZ
Type TWR Name TWR Frequency 118.45 MHZ
Airport Navaids
Type VOR-DME Name Pescara Frequency 115900 KHZ
Airport Weather Information & NOTAM
ADDS - METARS form results

(1303 UTC 28 September 2022)
Data provider http://aviationweather.gov/metar/data/
 
METAR text: LIBP 281250Z AUTO 04007KT 9999 BKN210/// 22/14 Q1002
Conditions at: LIBP (PESCARA , IT) observed 1250 UTC 28 September 2022
Temperature: 22.0°C (72°F)
Dewpoint: 14.0°C (57°F) [RH = 60%]
Pressure (altimeter): 29.59 inches Hg (1002.0 mb)
Winds: from the NE (40 degrees) at 8 MPH (7 knots; 3.6 m/s)
Visibility: 6 or more miles (10+ km)
Ceiling: 21000 feet AGL
Clouds: broken clouds at 21000 feet AGL
Weather: no significant weather observed at this time

METAR text: LIBP 281220Z AUTO 08008KT 9999 OVC190/// 22/15 Q1002
Conditions at: LIBP (PESCARA , IT) observed 1220 UTC 28 September 2022
Temperature: 22.0°C (72°F)
Dewpoint: 15.0°C (59°F) [RH = 65%]
Pressure (altimeter): 29.59 inches Hg (1002.0 mb)
Winds: from the E (80 degrees) at 9 MPH (8 knots; 4.1 m/s)
Visibility: 6 or more miles (10+ km)
Ceiling: 19000 feet AGL
Clouds: overcast cloud deck at 19000 feet AGL
Weather: no significant weather observed at this time

Forecast for: LIBP (PESCARA , IT)
Text: TAF LIBP 281100Z 2812/2912 10010KT 9999 FEW050 SCT080
Forecast period: 1200 to 1700 UTC 28 September 2022
Forecast type: FROM: standard forecast or significant change
Winds: from the E (100 degrees) at 12 MPH (10 knots; 5.1 m/s)
Visibility: 6 or more miles (10+ km)
Ceiling: at least 12,000 feet AGL
Clouds: few clouds at 5000 feet AGL
scattered clouds at 8000 feet AGL
Weather: no significant weather forecast for this period
Text: BECMG 2817/2819 24014KT
Forecast period: 1700 UTC 28 September 2022 to 1200 UTC 29 September 2022
Forecast type: BECOMING: Conditions expected to become as follows by 1900 UTC 28 September 2022
Winds: from the WSW (240 degrees) at 16 MPH (14 knots; 7.2 m/s)
Visibility: 6 or more miles (10+ km)
Ceiling: at least 12,000 feet AGL
Clouds: few clouds at 5000 feet AGL
scattered clouds at 8000 feet AGL
Weather: no significant weather forecast for this period